sensor_id;sensor_type;location;lat;lon;timestamp;P1;durP1;ratioP1;P2;durP2;ratioP2
23676;SDS011;31493;49.058;12.190;2023-02-24T00:01:35;45.78;;;29.00;;
23676;SDS011;31493;49.058;12.190;2023-02-24T00:04:04;52.40;;;31.05;;
23676;SDS011;31493;49.058;12.190;2023-02-24T00:06:34;52.03;;;30.65;;
23676;SDS011;31493;49.058;12.190;2023-02-24T00:09:02;53.45;;;30.83;;
23676;SDS011;31493;49.058;12.190;2023-02-24T00:11:33;52.58;;;28.88;;
23676;SDS011;31493;49.058;12.190;2023-02-24T00:14:00;49.47;;;28.98;;
23676;SDS011;31493;49.058;12.190;2023-02-24T00:16:30;53.92;;;30.85;;
23676;SDS011;31493;49.058;12.190;2023-02-24T00:18:59;52.33;;;30.67;;
23676;SDS011;31493;49.058;12.190;2023-02-24T00:21:26;55.05;;;31.38;;
23676;SDS011;31493;49.058;12.190;2023-02-24T00:23:54;47.25;;;28.08;;
23676;SDS011;31493;49.058;12.190;2023-02-24T00:26:23;53.78;;;29.85;;
23676;SDS011;31493;49.058;12.190;2023-02-24T00:28:51;54.22;;;28.45;;
23676;SDS011;31493;49.058;12.190;2023-02-24T00:31:18;51.67;;;29.42;;
23676;SDS011;31493;49.058;12.190;2023-02-24T00:33:48;59.03;;;31.27;;
23676;SDS011;31493;49.058;12.190;2023-02-24T00:36:17;59.33;;;31.23;;
23676;SDS011;31493;49.058;12.190;2023-02-24T00:38:48;54.13;;;30.58;;
23676;SDS011;31493;49.058;12.190;2023-02-24T00:41:16;57.15;;;29.10;;
23676;SDS011;31493;49.058;12.190;2023-02-24T00:43:47;57.35;;;30.40;;
23676;SDS011;31493;49.058;12.190;2023-02-24T00:46:15;54.37;;;29.70;;
23676;SDS011;31493;49.058;12.190;2023-02-24T00:48:45;59.10;;;31.05;;
23676;SDS011;31493;49.058;12.190;2023-02-24T00:51:14;68.53;;;33.07;;
23676;SDS011;31493;49.058;12.190;2023-02-24T00:53:49;67.32;;;27.90;;
23676;SDS011;31493;49.058;12.190;2023-02-24T00:56:20;195.82;;;29.65;;
23676;SDS011;31493;49.058;12.190;2023-02-24T00:58:48;319.13;;;28.17;;
23676;SDS011;31493;49.058;12.190;2023-02-24T01:01:16;355.17;;;28.80;;
23676;SDS011;31493;49.058;12.190;2023-02-24T01:06:12;47.00;;;27.50;;
23676;SDS011;31493;49.058;12.190;2023-02-24T01:08:39;47.78;;;28.67;;
23676;SDS011;31493;49.058;12.190;2023-02-24T01:11:13;54.17;;;29.95;;
23676;SDS011;31493;49.058;12.190;2023-02-24T01:13:59;60.83;;;30.60;;
23676;SDS011;31493;49.058;12.190;2023-02-24T01:16:26;59.05;;;31.85;;
23676;SDS011;31493;49.058;12.190;2023-02-24T01:18:53;57.35;;;30.15;;
23676;SDS011;31493;49.058;12.190;2023-02-24T01:21:20;54.90;;;30.48;;
23676;SDS011;31493;49.058;12.190;2023-02-24T01:23:48;57.65;;;31.35;;
23676;SDS011;31493;49.058;12.190;2023-02-24T01:26:17;55.70;;;30.70;;
23676;SDS011;31493;49.058;12.190;2023-02-24T01:28:45;54.05;;;31.48;;
23676;SDS011;31493;49.058;12.190;2023-02-24T01:31:13;54.20;;;29.92;;
23676;SDS011;31493;49.058;12.190;2023-02-24T01:33:42;60.75;;;32.42;;
23676;SDS011;31493;49.058;12.190;2023-02-24T01:36:11;47.67;;;28.38;;
23676;SDS011;31493;49.058;12.190;2023-02-24T01:38:39;54.08;;;29.65;;
23676;SDS011;31493;49.058;12.190;2023-02-24T01:41:08;51.13;;;29.37;;
23676;SDS011;31493;49.058;12.190;2023-02-24T01:43:58;48.50;;;29.63;;
23676;SDS011;31493;49.058;12.190;2023-02-24T01:46:28;146.80;;;27.00;;
23676;SDS011;31493;49.058;12.190;2023-02-24T01:48:58;129.10;;;24.80;;
23676;SDS011;31493;49.058;12.190;2023-02-24T01:51:30;46.60;;;25.55;;
23676;SDS011;31493;49.058;12.190;2023-02-24T01:54:00;50.13;;;27.95;;
23676;SDS011;31493;49.058;12.190;2023-02-24T01:56:30;50.47;;;27.45;;
23676;SDS011;31493;49.058;12.190;2023-02-24T01:58:59;48.03;;;28.20;;
23676;SDS011;31493;49.058;12.190;2023-02-24T02:01:28;47.40;;;26.83;;
23676;SDS011;31493;49.058;12.190;2023-02-24T02:03:56;48.83;;;28.77;;
23676;SDS011;31493;49.058;12.190;2023-02-24T02:06:30;46.58;;;27.63;;
23676;SDS011;31493;49.058;12.190;2023-02-24T02:08:57;51.03;;;29.02;;
23676;SDS011;31493;49.058;12.190;2023-02-24T02:11:26;59.33;;;31.00;;
23676;SDS011;31493;49.058;12.190;2023-02-24T02:13:53;58.40;;;30.10;;
23676;SDS011;31493;49.058;12.190;2023-02-24T02:16:26;45.95;;;28.17;;
23676;SDS011;31493;49.058;12.190;2023-02-24T02:19:07;48.55;;;27.73;;
23676;SDS011;31493;49.058;12.190;2023-02-24T02:21:56;134.73;;;26.95;;
23676;SDS011;31493;49.058;12.190;2023-02-24T02:27:26;41.72;;;23.58;;
23676;SDS011;31493;49.058;12.190;2023-02-24T02:33:15;43.03;;;25.65;;
23676;SDS011;31493;49.058;12.190;2023-02-24T02:36:01;48.30;;;26.95;;
23676;SDS011;31493;49.058;12.190;2023-02-24T02:38:38;44.67;;;26.30;;
23676;SDS011;31493;49.058;12.190;2023-02-24T02:41:16;50.55;;;27.10;;
23676;SDS011;31493;49.058;12.190;2023-02-24T02:43:49;48.65;;;26.25;;
23676;SDS011;31493;49.058;12.190;2023-02-24T02:46:24;44.15;;;26.55;;
23676;SDS011;31493;49.058;12.190;2023-02-24T02:49:04;47.38;;;26.20;;
23676;SDS011;31493;49.058;12.190;2023-02-24T02:51:40;45.20;;;25.87;;
23676;SDS011;31493;49.058;12.190;2023-02-24T02:54:14;46.72;;;26.40;;
23676;SDS011;31493;49.058;12.190;2023-02-24T02:56:45;43.75;;;26.40;;
23676;SDS011;31493;49.058;12.190;2023-02-24T02:59:16;46.33;;;25.98;;
23676;SDS011;31493;49.058;12.190;2023-02-24T03:01:48;46.45;;;26.92;;
23676;SDS011;31493;49.058;12.190;2023-02-24T03:04:20;52.22;;;25.75;;
23676;SDS011;31493;49.058;12.190;2023-02-24T03:06:52;47.03;;;24.35;;
23676;SDS011;31493;49.058;12.190;2023-02-24T03:09:23;44.78;;;25.10;;
23676;SDS011;31493;49.058;12.190;2023-02-24T03:11:55;46.40;;;25.20;;
23676;SDS011;31493;49.058;12.190;2023-02-24T03:14:27;52.95;;;27.52;;
23676;SDS011;31493;49.058;12.190;2023-02-24T03:16:57;45.58;;;25.60;;
23676;SDS011;31493;49.058;12.190;2023-02-24T03:19:31;47.88;;;26.63;;
23676;SDS011;31493;49.058;12.190;2023-02-24T03:22:05;53.30;;;27.20;;
23676;SDS011;31493;49.058;12.190;2023-02-24T03:24:37;46.72;;;25.85;;
23676;SDS011;31493;49.058;12.190;2023-02-24T03:27:06;55.63;;;28.15;;
23676;SDS011;31493;49.058;12.190;2023-02-24T03:29:36;51.97;;;27.58;;
23676;SDS011;31493;49.058;12.190;2023-02-24T03:32:11;50.10;;;27.85;;
23676;SDS011;31493;49.058;12.190;2023-02-24T03:34:45;49.75;;;26.17;;
23676;SDS011;31493;49.058;12.190;2023-02-24T03:37:21;50.63;;;26.80;;
23676;SDS011;31493;49.058;12.190;2023-02-24T03:39:51;49.45;;;27.30;;
23676;SDS011;31493;49.058;12.190;2023-02-24T03:42:19;49.57;;;26.27;;
23676;SDS011;31493;49.058;12.190;2023-02-24T03:44:48;53.15;;;27.17;;
23676;SDS011;31493;49.058;12.190;2023-02-24T03:47:16;94.00;;;26.00;;
23676;SDS011;31493;49.058;12.190;2023-02-24T03:49:45;390.80;;;29.67;;
23676;SDS011;31493;49.058;12.190;2023-02-24T03:52:15;53.40;;;26.33;;
23676;SDS011;31493;49.058;12.190;2023-02-24T03:55:01;46.13;;;26.60;;
23676;SDS011;31493;49.058;12.190;2023-02-24T03:57:42;50.28;;;26.90;;
23676;SDS011;31493;49.058;12.190;2023-02-24T04:00:26;57.80;;;28.30;;
23676;SDS011;31493;49.058;12.190;2023-02-24T04:03:01;47.05;;;26.42;;
23676;SDS011;31493;49.058;12.190;2023-02-24T04:08:13;52.72;;;25.30;;
23676;SDS011;31493;49.058;12.190;2023-02-24T04:10:45;48.63;;;26.48;;
23676;SDS011;31493;49.058;12.190;2023-02-24T04:13:19;54.65;;;24.38;;
23676;SDS011;31493;49.058;12.190;2023-02-24T04:15:58;142.18;;;23.70;;
23676;SDS011;31493;49.058;12.190;2023-02-24T04:18:28;46.63;;;24.90;;
23676;SDS011;31493;49.058;12.190;2023-02-24T04:20:58;49.50;;;26.10;;
23676;SDS011;31493;49.058;12.190;2023-02-24T04:23:30;51.25;;;25.88;;
23676;SDS011;31493;49.058;12.190;2023-02-24T04:26:03;57.45;;;25.83;;
23676;SDS011;31493;49.058;12.190;2023-02-24T04:28:32;52.47;;;25.73;;
23676;SDS011;31493;49.058;12.190;2023-02-24T04:31:00;55.75;;;27.70;;
23676;SDS011;31493;49.058;12.190;2023-02-24T04:33:30;52.20;;;26.73;;
23676;SDS011;31493;49.058;12.190;2023-02-24T04:35:58;54.58;;;27.00;;
23676;SDS011;31493;49.058;12.190;2023-02-24T04:38:25;65.38;;;29.23;;
23676;SDS011;31493;49.058;12.190;2023-02-24T04:40:53;58.30;;;29.83;;
23676;SDS011;31493;49.058;12.190;2023-02-24T04:43:22;56.72;;;28.10;;
23676;SDS011;31493;49.058;12.190;2023-02-24T04:45:49;56.92;;;28.35;;
23676;SDS011;31493;49.058;12.190;2023-02-24T04:48:17;53.45;;;28.90;;
23676;SDS011;31493;49.058;12.190;2023-02-24T04:50:44;56.13;;;28.80;;
23676;SDS011;31493;49.058;12.190;2023-02-24T04:53:14;53.58;;;28.23;;
23676;SDS011;31493;49.058;12.190;2023-02-24T04:55:42;54.88;;;28.52;;
23676;SDS011;31493;49.058;12.190;2023-02-24T04:58:15;51.63;;;26.80;;
23676;SDS011;31493;49.058;12.190;2023-02-24T05:00:44;64.18;;;27.95;;
23676;SDS011;31493;49.058;12.190;2023-02-24T05:03:14;226.35;;;27.90;;
23676;SDS011;31493;49.058;12.190;2023-02-24T05:05:47;59.17;;;27.83;;
23676;SDS011;31493;49.058;12.190;2023-02-24T05:08:16;55.17;;;27.90;;
23676;SDS011;31493;49.058;12.190;2023-02-24T05:10:45;61.53;;;29.77;;
23676;SDS011;31493;49.058;12.190;2023-02-24T05:13:13;58.50;;;29.38;;
23676;SDS011;31493;49.058;12.190;2023-02-24T05:15:44;59.75;;;28.38;;
23676;SDS011;31493;49.058;12.190;2023-02-24T05:18:13;60.53;;;28.88;;
23676;SDS011;31493;49.058;12.190;2023-02-24T05:20:42;60.05;;;28.90;;
23676;SDS011;31493;49.058;12.190;2023-02-24T05:23:29;58.47;;;28.63;;
23676;SDS011;31493;49.058;12.190;2023-02-24T05:25:58;56.92;;;28.77;;
23676;SDS011;31493;49.058;12.190;2023-02-24T05:28:27;56.22;;;28.55;;
23676;SDS011;31493;49.058;12.190;2023-02-24T05:31:02;58.63;;;28.70;;
23676;SDS011;31493;49.058;12.190;2023-02-24T05:33:32;62.22;;;30.40;;
23676;SDS011;31493;49.058;12.190;2023-02-24T05:36:01;63.78;;;29.92;;
23676;SDS011;31493;49.058;12.190;2023-02-24T05:38:28;71.03;;;29.50;;
23676;SDS011;31493;49.058;12.190;2023-02-24T05:41:02;58.40;;;27.75;;
23676;SDS011;31493;49.058;12.190;2023-02-24T05:43:33;101.82;;;27.27;;
23676;SDS011;31493;49.058;12.190;2023-02-24T05:48:28;48.15;;;26.15;;
23676;SDS011;31493;49.058;12.190;2023-02-24T05:51:00;60.28;;;29.52;;
23676;SDS011;31493;49.058;12.190;2023-02-24T05:53:27;70.10;;;31.37;;
23676;SDS011;31493;49.058;12.190;2023-02-24T05:55:54;69.90;;;31.63;;
23676;SDS011;31493;49.058;12.190;2023-02-24T05:58:26;69.10;;;31.20;;
23676;SDS011;31493;49.058;12.190;2023-02-24T06:00:55;70.47;;;32.22;;
23676;SDS011;31493;49.058;12.190;2023-02-24T06:03:23;67.72;;;31.15;;
23676;SDS011;31493;49.058;12.190;2023-02-24T06:05:55;53.50;;;26.90;;
23676;SDS011;31493;49.058;12.190;2023-02-24T06:08:30;379.33;;;40.80;;
23676;SDS011;31493;49.058;12.190;2023-02-24T06:11:07;136.07;;;32.08;;
23676;SDS011;31493;49.058;12.190;2023-02-24T06:13:35;207.85;;;31.73;;
23676;SDS011;31493;49.058;12.190;2023-02-24T06:16:04;80.93;;;31.00;;
23676;SDS011;31493;49.058;12.190;2023-02-24T06:18:32;57.30;;;29.50;;
23676;SDS011;31493;49.058;12.190;2023-02-24T06:21:00;55.70;;;29.63;;
23676;SDS011;31493;49.058;12.190;2023-02-24T06:23:28;56.70;;;29.50;;
23676;SDS011;31493;49.058;12.190;2023-02-24T06:25:55;59.00;;;30.00;;
23676;SDS011;31493;49.058;12.190;2023-02-24T06:28:28;129.07;;;33.13;;
23676;SDS011;31493;49.058;12.190;2023-02-24T06:30:55;65.18;;;30.00;;
23676;SDS011;31493;49.058;12.190;2023-02-24T06:33:23;94.80;;;28.83;;
23676;SDS011;31493;49.058;12.190;2023-02-24T06:35:51;62.83;;;27.92;;
23676;SDS011;31493;49.058;12.190;2023-02-24T06:38:19;51.97;;;27.63;;
23676;SDS011;31493;49.058;12.190;2023-02-24T06:40:46;61.42;;;29.70;;
23676;SDS011;31493;49.058;12.190;2023-02-24T06:43:16;55.53;;;27.08;;
23676;SDS011;31493;49.058;12.190;2023-02-24T06:45:43;59.10;;;29.88;;
23676;SDS011;31493;49.058;12.190;2023-02-24T06:48:11;64.32;;;29.50;;
23676;SDS011;31493;49.058;12.190;2023-02-24T06:50:39;60.00;;;30.63;;
23676;SDS011;31493;49.058;12.190;2023-02-24T06:53:06;56.72;;;29.10;;
23676;SDS011;31493;49.058;12.190;2023-02-24T06:55:41;50.20;;;25.40;;
23676;SDS011;31493;49.058;12.190;2023-02-24T06:58:13;75.53;;;31.40;;
23676;SDS011;31493;49.058;12.190;2023-02-24T07:00:43;55.95;;;27.40;;
23676;SDS011;31493;49.058;12.190;2023-02-24T07:03:21;51.15;;;26.23;;
23676;SDS011;31493;49.058;12.190;2023-02-24T07:06:05;85.22;;;24.63;;
23676;SDS011;31493;49.058;12.190;2023-02-24T07:08:45;51.58;;;27.23;;
23676;SDS011;31493;49.058;12.190;2023-02-24T07:11:12;52.92;;;26.35;;
23676;SDS011;31493;49.058;12.190;2023-02-24T07:13:42;50.22;;;26.40;;
23676;SDS011;31493;49.058;12.190;2023-02-24T07:16:09;54.80;;;27.35;;
23676;SDS011;31493;49.058;12.190;2023-02-24T07:18:37;57.90;;;28.30;;
23676;SDS011;31493;49.058;12.190;2023-02-24T07:21:07;57.08;;;28.70;;
23676;SDS011;31493;49.058;12.190;2023-02-24T07:23:36;58.22;;;29.10;;
23676;SDS011;31493;49.058;12.190;2023-02-24T07:26:07;55.28;;;28.33;;
23676;SDS011;31493;49.058;12.190;2023-02-24T07:28:36;60.28;;;29.63;;
23676;SDS011;31493;49.058;12.190;2023-02-24T07:31:05;57.85;;;29.80;;
23676;SDS011;31493;49.058;12.190;2023-02-24T07:36:01;49.90;;;25.38;;
23676;SDS011;31493;49.058;12.190;2023-02-24T07:38:35;59.08;;;28.42;;
23676;SDS011;31493;49.058;12.190;2023-02-24T07:41:03;51.33;;;27.25;;
23676;SDS011;31493;49.058;12.190;2023-02-24T07:43:31;50.30;;;26.63;;
23676;SDS011;31493;49.058;12.190;2023-02-24T07:46:03;51.85;;;26.90;;
23676;SDS011;31493;49.058;12.190;2023-02-24T07:48:32;53.83;;;27.38;;
23676;SDS011;31493;49.058;12.190;2023-02-24T07:50:59;55.10;;;27.95;;
23676;SDS011;31493;49.058;12.190;2023-02-24T07:53:26;68.43;;;30.80;;
23676;SDS011;31493;49.058;12.190;2023-02-24T07:55:54;54.38;;;28.65;;
23676;SDS011;31493;49.058;12.190;2023-02-24T07:58:21;51.53;;;27.95;;
23676;SDS011;31493;49.058;12.190;2023-02-24T08:00:48;52.92;;;27.30;;
23676;SDS011;31493;49.058;12.190;2023-02-24T08:03:25;51.58;;;27.60;;
23676;SDS011;31493;49.058;12.190;2023-02-24T08:05:55;57.30;;;28.85;;
23676;SDS011;31493;49.058;12.190;2023-02-24T08:08:37;51.65;;;28.50;;
23676;SDS011;31493;49.058;12.190;2023-02-24T08:11:24;58.22;;;29.20;;
23676;SDS011;31493;49.058;12.190;2023-02-24T08:13:52;57.53;;;28.23;;
23676;SDS011;31493;49.058;12.190;2023-02-24T08:16:19;53.65;;;28.40;;
23676;SDS011;31493;49.058;12.190;2023-02-24T08:18:47;53.53;;;27.00;;
23676;SDS011;31493;49.058;12.190;2023-02-24T08:21:15;53.88;;;27.40;;
23676;SDS011;31493;49.058;12.190;2023-02-24T08:23:45;49.75;;;28.65;;
23676;SDS011;31493;49.058;12.190;2023-02-24T08:26:12;56.63;;;29.10;;
23676;SDS011;31493;49.058;12.190;2023-02-24T08:28:41;59.10;;;29.52;;
23676;SDS011;31493;49.058;12.190;2023-02-24T08:31:08;53.47;;;27.48;;
23676;SDS011;31493;49.058;12.190;2023-02-24T08:33:37;53.63;;;28.42;;
23676;SDS011;31493;49.058;12.190;2023-02-24T08:36:04;52.90;;;28.25;;
23676;SDS011;31493;49.058;12.190;2023-02-24T08:38:32;52.95;;;28.00;;
23676;SDS011;31493;49.058;12.190;2023-02-24T08:41:10;53.33;;;27.35;;
23676;SDS011;31493;49.058;12.190;2023-02-24T08:43:43;48.70;;;26.90;;
23676;SDS011;31493;49.058;12.190;2023-02-24T08:46:13;55.60;;;27.45;;
23676;SDS011;31493;49.058;12.190;2023-02-24T08:48:44;49.75;;;26.85;;
23676;SDS011;31493;49.058;12.190;2023-02-24T08:51:13;59.47;;;30.40;;
23676;SDS011;31493;49.058;12.190;2023-02-24T08:53:46;63.80;;;32.28;;
23676;SDS011;31493;49.058;12.190;2023-02-24T08:56:18;58.10;;;29.77;;
23676;SDS011;31493;49.058;12.190;2023-02-24T08:58:51;54.17;;;28.23;;
23676;SDS011;31493;49.058;12.190;2023-02-24T09:01:23;53.25;;;28.48;;
23676;SDS011;31493;49.058;12.190;2023-02-24T09:03:56;57.50;;;30.40;;
23676;SDS011;31493;49.058;12.190;2023-02-24T09:09:00;60.53;;;29.95;;
23676;SDS011;31493;49.058;12.190;2023-02-24T09:11:48;55.30;;;28.55;;
23676;SDS011;31493;49.058;12.190;2023-02-24T09:14:22;55.72;;;30.15;;
23676;SDS011;31493;49.058;12.190;2023-02-24T09:16:51;60.08;;;30.77;;
23676;SDS011;31493;49.058;12.190;2023-02-24T09:19:28;64.82;;;30.58;;
23676;SDS011;31493;49.058;12.190;2023-02-24T09:22:14;57.25;;;29.30;;
23676;SDS011;31493;49.058;12.190;2023-02-24T09:24:56;52.30;;;28.73;;
23676;SDS011;31493;49.058;12.190;2023-02-24T09:27:37;59.33;;;29.20;;
23676;SDS011;31493;49.058;12.190;2023-02-24T09:30:09;55.92;;;29.52;;
23676;SDS011;31493;49.058;12.190;2023-02-24T09:32:56;54.63;;;29.52;;
23676;SDS011;31493;49.058;12.190;2023-02-24T09:35:26;52.88;;;28.55;;
23676;SDS011;31493;49.058;12.190;2023-02-24T09:37:56;51.05;;;26.30;;
23676;SDS011;31493;49.058;12.190;2023-02-24T09:40:25;48.42;;;27.08;;
23676;SDS011;31493;49.058;12.190;2023-02-24T09:43:07;45.63;;;25.05;;
23676;SDS011;31493;49.058;12.190;2023-02-24T09:45:47;42.50;;;24.65;;
23676;SDS011;31493;49.058;12.190;2023-02-24T09:48:23;46.67;;;25.50;;
23676;SDS011;31493;49.058;12.190;2023-02-24T09:50:57;45.47;;;23.48;;
23676;SDS011;31493;49.058;12.190;2023-02-24T09:53:29;43.80;;;23.40;;
23676;SDS011;31493;49.058;12.190;2023-02-24T09:56:04;45.90;;;25.38;;
23676;SDS011;31493;49.058;12.190;2023-02-24T09:58:41;44.75;;;23.55;;
23676;SDS011;31493;49.058;12.190;2023-02-24T10:01:22;46.78;;;25.42;;
23676;SDS011;31493;49.058;12.190;2023-02-24T10:04:00;41.60;;;23.33;;
23676;SDS011;31493;49.058;12.190;2023-02-24T10:06:34;40.28;;;22.77;;
23676;SDS011;31493;49.058;12.190;2023-02-24T10:09:07;41.83;;;22.67;;
23676;SDS011;31493;49.058;12.190;2023-02-24T10:11:46;38.65;;;22.88;;
23676;SDS011;31493;49.058;12.190;2023-02-24T10:14:20;41.70;;;23.98;;
23676;SDS011;31493;49.058;12.190;2023-02-24T10:16:54;43.72;;;24.45;;
23676;SDS011;31493;49.058;12.190;2023-02-24T10:19:38;41.00;;;22.17;;
23676;SDS011;31493;49.058;12.190;2023-02-24T10:22:07;41.25;;;21.98;;
23676;SDS011;31493;49.058;12.190;2023-02-24T10:24:53;38.75;;;21.83;;
23676;SDS011;31493;49.058;12.190;2023-02-24T10:27:37;45.72;;;22.02;;
23676;SDS011;31493;49.058;12.190;2023-02-24T10:30:26;38.35;;;20.70;;
23676;SDS011;31493;49.058;12.190;2023-02-24T10:33:11;34.90;;;20.15;;
23676;SDS011;31493;49.058;12.190;2023-02-24T10:35:45;36.95;;;20.90;;
23676;SDS011;31493;49.058;12.190;2023-02-24T10:38:12;33.67;;;19.75;;
23676;SDS011;31493;49.058;12.190;2023-02-24T10:40:43;38.30;;;20.52;;
23676;SDS011;31493;49.058;12.190;2023-02-24T10:43:14;36.05;;;20.42;;
23676;SDS011;31493;49.058;12.190;2023-02-24T10:45:44;33.15;;;19.05;;
23676;SDS011;31493;49.058;12.190;2023-02-24T10:48:21;31.05;;;18.45;;
23676;SDS011;31493;49.058;12.190;2023-02-24T10:50:50;32.67;;;18.10;;
23676;SDS011;31493;49.058;12.190;2023-02-24T10:53:20;30.80;;;16.88;;
23676;SDS011;31493;49.058;12.190;2023-02-24T10:56:02;29.20;;;16.50;;
23676;SDS011;31493;49.058;12.190;2023-02-24T10:59:01;26.70;;;16.27;;
23676;SDS011;31493;49.058;12.190;2023-02-24T11:01:50;31.27;;;16.92;;
23676;SDS011;31493;49.058;12.190;2023-02-24T11:04:31;28.48;;;15.80;;
23676;SDS011;31493;49.058;12.190;2023-02-24T11:07:18;35.03;;;17.70;;
23676;SDS011;31493;49.058;12.190;2023-02-24T11:10:10;27.80;;;15.68;;
23676;SDS011;31493;49.058;12.190;2023-02-24T11:12:42;29.90;;;16.58;;
23676;SDS011;31493;49.058;12.190;2023-02-24T11:15:29;28.55;;;16.95;;
23676;SDS011;31493;49.058;12.190;2023-02-24T11:18:18;29.33;;;16.80;;
23676;SDS011;31493;49.058;12.190;2023-02-24T11:20:50;27.50;;;16.75;;
23676;SDS011;31493;49.058;12.190;2023-02-24T11:23:21;29.05;;;17.15;;
23676;SDS011;31493;49.058;12.190;2023-02-24T11:25:50;27.77;;;16.02;;
23676;SDS011;31493;49.058;12.190;2023-02-24T11:28:23;28.63;;;16.73;;
23676;SDS011;31493;49.058;12.190;2023-02-24T11:31:05;28.23;;;16.58;;
23676;SDS011;31493;49.058;12.190;2023-02-24T11:33:45;29.55;;;16.13;;
23676;SDS011;31493;49.058;12.190;2023-02-24T11:36:25;25.80;;;15.65;;
23676;SDS011;31493;49.058;12.190;2023-02-24T11:39:02;25.30;;;15.25;;
23676;SDS011;31493;49.058;12.190;2023-02-24T11:41:36;25.63;;;15.05;;
23676;SDS011;31493;49.058;12.190;2023-02-24T11:44:08;26.52;;;15.25;;
23676;SDS011;31493;49.058;12.190;2023-02-24T11:46:43;23.17;;;14.57;;
23676;SDS011;31493;49.058;12.190;2023-02-24T11:49:16;25.70;;;14.93;;
23676;SDS011;31493;49.058;12.190;2023-02-24T11:51:54;23.13;;;14.90;;
23676;SDS011;31493;49.058;12.190;2023-02-24T11:54:23;25.58;;;14.98;;
23676;SDS011;31493;49.058;12.190;2023-02-24T11:56:53;25.48;;;14.98;;
23676;SDS011;31493;49.058;12.190;2023-02-24T11:59:27;26.23;;;14.75;;
23676;SDS011;31493;49.058;12.190;2023-02-24T12:02:00;25.50;;;14.05;;
23676;SDS011;31493;49.058;12.190;2023-02-24T12:04:33;24.98;;;13.00;;
23676;SDS011;31493;49.058;12.190;2023-02-24T12:07:05;23.77;;;12.48;;
23676;SDS011;31493;49.058;12.190;2023-02-24T12:09:45;24.42;;;13.93;;
23676;SDS011;31493;49.058;12.190;2023-02-24T12:12:17;22.23;;;13.15;;
23676;SDS011;31493;49.058;12.190;2023-02-24T12:14:50;25.58;;;13.52;;
23676;SDS011;31493;49.058;12.190;2023-02-24T12:17:23;24.13;;;13.82;;
23676;SDS011;31493;49.058;12.190;2023-02-24T12:19:57;22.35;;;14.10;;
23676;SDS011;31493;49.058;12.190;2023-02-24T12:22:32;26.60;;;14.57;;
23676;SDS011;31493;49.058;12.190;2023-02-24T12:25:09;24.90;;;14.57;;
23676;SDS011;31493;49.058;12.190;2023-02-24T12:27:40;25.88;;;15.15;;
23676;SDS011;31493;49.058;12.190;2023-02-24T12:30:21;26.58;;;15.65;;
23676;SDS011;31493;49.058;12.190;2023-02-24T12:33:04;29.70;;;15.45;;
23676;SDS011;31493;49.058;12.190;2023-02-24T12:35:46;29.33;;;14.65;;
23676;SDS011;31493;49.058;12.190;2023-02-24T12:38:28;26.15;;;15.60;;
23676;SDS011;31493;49.058;12.190;2023-02-24T12:41:09;26.52;;;14.48;;
23676;SDS011;31493;49.058;12.190;2023-02-24T12:46:18;28.70;;;15.48;;
23676;SDS011;31493;49.058;12.190;2023-02-24T12:49:12;31.15;;;13.98;;
23676;SDS011;31493;49.058;12.190;2023-02-24T12:51:48;29.45;;;14.30;;
23676;SDS011;31493;49.058;12.190;2023-02-24T12:54:28;30.33;;;13.98;;
23676;SDS011;31493;49.058;12.190;2023-02-24T12:57:02;26.77;;;13.50;;
23676;SDS011;31493;49.058;12.190;2023-02-24T12:59:37;24.75;;;14.00;;
23676;SDS011;31493;49.058;12.190;2023-02-24T13:02:06;24.08;;;14.10;;
23676;SDS011;31493;49.058;12.190;2023-02-24T13:04:44;29.60;;;14.77;;
23676;SDS011;31493;49.058;12.190;2023-02-24T13:07:24;26.13;;;14.70;;
23676;SDS011;31493;49.058;12.190;2023-02-24T13:10:11;31.80;;;17.52;;
23676;SDS011;31493;49.058;12.190;2023-02-24T13:12:51;28.10;;;15.13;;
23676;SDS011;31493;49.058;12.190;2023-02-24T13:15:28;19.85;;;11.77;;
23676;SDS011;31493;49.058;12.190;2023-02-24T13:17:56;24.25;;;11.55;;
23676;SDS011;31493;49.058;12.190;2023-02-24T13:20:25;17.20;;;10.35;;
23676;SDS011;31493;49.058;12.190;2023-02-24T13:22:55;17.00;;;9.65;;
23676;SDS011;31493;49.058;12.190;2023-02-24T13:25:28;20.30;;;9.82;;
23676;SDS011;31493;49.058;12.190;2023-02-24T13:27:59;19.85;;;10.13;;
23676;SDS011;31493;49.058;12.190;2023-02-24T13:30:30;21.95;;;10.82;;
23676;SDS011;31493;49.058;12.190;2023-02-24T13:33:03;20.88;;;10.73;;
23676;SDS011;31493;49.058;12.190;2023-02-24T13:35:33;23.85;;;10.15;;
23676;SDS011;31493;49.058;12.190;2023-02-24T13:38:09;20.48;;;10.02;;
23676;SDS011;31493;49.058;12.190;2023-02-24T13:40:49;22.40;;;10.10;;
23676;SDS011;31493;49.058;12.190;2023-02-24T13:43:24;21.67;;;10.98;;
23676;SDS011;31493;49.058;12.190;2023-02-24T13:45:54;19.00;;;10.80;;
23676;SDS011;31493;49.058;12.190;2023-02-24T13:48:28;21.48;;;10.70;;
23676;SDS011;31493;49.058;12.190;2023-02-24T13:51:09;23.70;;;10.05;;
23676;SDS011;31493;49.058;12.190;2023-02-24T13:53:49;20.10;;;10.30;;
23676;SDS011;31493;49.058;12.190;2023-02-24T13:56:29;19.35;;;10.02;;
23676;SDS011;31493;49.058;12.190;2023-02-24T13:59:07;17.77;;;9.93;;
23676;SDS011;31493;49.058;12.190;2023-02-24T14:01:44;23.35;;;12.02;;
23676;SDS011;31493;49.058;12.190;2023-02-24T14:04:15;22.02;;;11.70;;
23676;SDS011;31493;49.058;12.190;2023-02-24T14:06:44;19.33;;;10.77;;
23676;SDS011;31493;49.058;12.190;2023-02-24T14:09:15;21.73;;;11.93;;
23676;SDS011;31493;49.058;12.190;2023-02-24T14:11:50;22.38;;;11.32;;
23676;SDS011;31493;49.058;12.190;2023-02-24T14:14:20;25.25;;;12.48;;
23676;SDS011;31493;49.058;12.190;2023-02-24T14:16:48;23.20;;;12.00;;
23676;SDS011;31493;49.058;12.190;2023-02-24T14:19:16;26.48;;;13.90;;
23676;SDS011;31493;49.058;12.190;2023-02-24T14:21:48;24.45;;;12.95;;
23676;SDS011;31493;49.058;12.190;2023-02-24T14:24:17;25.35;;;12.80;;
23676;SDS011;31493;49.058;12.190;2023-02-24T14:26:45;22.23;;;11.98;;
23676;SDS011;31493;49.058;12.190;2023-02-24T14:29:17;25.70;;;12.75;;
23676;SDS011;31493;49.058;12.190;2023-02-24T14:31:47;25.80;;;12.93;;
23676;SDS011;31493;49.058;12.190;2023-02-24T14:34:17;27.63;;;13.50;;
23676;SDS011;31493;49.058;12.190;2023-02-24T14:36:46;23.05;;;11.98;;
23676;SDS011;31493;49.058;12.190;2023-02-24T14:39:15;26.77;;;13.15;;
23676;SDS011;31493;49.058;12.190;2023-02-24T14:41:44;21.95;;;12.10;;
23676;SDS011;31493;49.058;12.190;2023-02-24T14:44:18;26.80;;;12.30;;
23676;SDS011;31493;49.058;12.190;2023-02-24T14:46:48;23.42;;;12.68;;
23676;SDS011;31493;49.058;12.190;2023-02-24T14:49:17;19.52;;;10.55;;
23676;SDS011;31493;49.058;12.190;2023-02-24T14:51:51;24.88;;;11.82;;
23676;SDS011;31493;49.058;12.190;2023-02-24T14:54:33;21.05;;;10.73;;
23676;SDS011;31493;49.058;12.190;2023-02-24T14:57:10;24.55;;;11.95;;
23676;SDS011;31493;49.058;12.190;2023-02-24T14:59:41;22.63;;;11.32;;
23676;SDS011;31493;49.058;12.190;2023-02-24T15:02:14;24.80;;;10.95;;